Terminal Aerodrome Forecast
Issued by NWS Glasgow, MT

Home | Current Version | Previous Version | Text Only | Print | Product List | Glossary On
Versions: 1 2 3 4 5 6 7 8 9 10 11 12 13 14 15 16
642
FTUS45 KGGW 090520
TAFGGW
TAF
KGGW 090520Z 0906/1006 08007KT P6SM BKN019
     FM092100 10007KT P6SM OVC040
     FM100100 10011KT P6SM BKN025
     FM100500 10012KT P6SM BKN015=

USA.gov is the U.S. government's official web portal to all federal, state and local government web resources and services.